createdAt,value
2019-02-05T00:01:44.089Z,87.30
2019-02-05T00:04:11.079Z,86.90
2019-02-05T00:06:38.069Z,87.10
2019-02-05T00:09:08.852Z,87.10
2019-02-05T00:11:35.922Z,87.00
2019-02-05T00:14:02.892Z,86.40
2019-02-05T00:16:29.924Z,87.00
2019-02-05T00:18:56.898Z,87.80
2019-02-05T00:21:25.349Z,87.90
2019-02-05T00:23:52.349Z,87.50
2019-02-05T00:26:19.392Z,87.70
2019-02-05T00:28:46.418Z,87.30
2019-02-05T00:31:13.422Z,89.10
2019-02-05T00:33:40.394Z,87.30
2019-02-05T00:36:07.358Z,86.10
2019-02-05T00:38:34.369Z,87.10
2019-02-05T00:41:01.357Z,87.00
2019-02-05T00:43:28.369Z,86.10
2019-02-05T00:45:55.437Z,85.70
2019-02-05T00:48:22.424Z,87.70
2019-02-05T00:50:49.453Z,86.90
2019-02-05T00:53:16.477Z,86.70
2019-02-05T00:55:43.548Z,86.20
2019-02-05T00:58:10.633Z,85.30
2019-02-05T01:00:37.688Z,85.90
2019-02-05T01:03:04.672Z,86.10
2019-02-05T01:05:31.648Z,87.30
2019-02-05T01:07:58.706Z,86.70
2019-02-05T01:10:25.696Z,86.50
2019-02-05T01:12:52.640Z,85.00
2019-02-05T01:15:19.681Z,86.10
2019-02-05T01:17:46.638Z,84.60
2019-02-05T01:20:15.346Z,84.60
2019-02-05T01:22:42.991Z,85.60
2019-02-05T01:25:10.016Z,84.50
2019-02-05T01:27:37.011Z,85.70
2019-02-05T01:30:04.794Z,85.30
2019-02-05T01:32:31.795Z,85.10
2019-02-05T01:34:58.789Z,85.00
2019-02-05T01:37:25.802Z,85.60
2019-02-05T01:39:52.775Z,86.00
2019-02-05T01:42:19.725Z,86.50
2019-02-05T01:44:46.709Z,86.70
2019-02-05T01:47:13.724Z,87.20
2019-02-05T01:49:40.712Z,87.60
2019-02-05T01:52:07.725Z,86.30
2019-02-05T01:54:34.697Z,87.80
2019-02-05T01:57:01.677Z,88.30
2019-02-05T01:59:28.673Z,88.10
2019-02-05T02:01:55.626Z,88.90
2019-02-05T02:04:22.600Z,88.70
2019-02-05T02:06:49.600Z,88.20
2019-02-05T02:09:16.568Z,88.30
2019-02-05T02:11:43.528Z,89.40
2019-02-05T02:14:10.481Z,89.50
2019-02-05T02:16:37.439Z,90.00
2019-02-05T02:19:04.460Z,90.40
2019-02-05T02:21:31.425Z,90.50
2019-02-05T02:23:59.922Z,90.10
2019-02-05T02:26:26.799Z,90.20
2019-02-05T02:28:53.778Z,90.90
2019-02-05T02:31:20.749Z,90.00
2019-02-05T02:33:47.729Z,90.00
2019-02-05T02:36:14.774Z,90.10
2019-02-05T02:38:41.668Z,90.50
2019-02-05T02:41:08.613Z,90.10
2019-02-05T02:43:35.630Z,90.30
2019-02-05T02:46:02.611Z,90.50
2019-02-05T02:48:29.551Z,90.50
2019-02-05T02:50:56.548Z,90.60
2019-02-05T02:53:23.518Z,89.80
2019-02-05T02:55:50.464Z,90.10
2019-02-05T02:58:17.420Z,90.60
2019-02-05T03:00:44.402Z,90.40
2019-02-05T03:03:11.365Z,90.30
2019-02-05T03:05:38.351Z,88.90
2019-02-05T03:08:05.312Z,90.20
2019-02-05T03:10:32.256Z,89.30
2019-02-05T03:12:59.242Z,89.20
2019-02-05T03:15:26.180Z,89.00
2019-02-05T03:17:53.128Z,88.60
2019-02-05T03:20:20.107Z,88.40
2019-02-05T03:22:47.080Z,89.00
2019-02-05T03:25:17.436Z,90.10
2019-02-05T03:27:44.406Z,90.10
2019-02-05T03:30:14.615Z,89.40
2019-02-05T03:32:41.578Z,90.10
2019-02-05T03:35:08.730Z,89.50
2019-02-05T03:37:35.683Z,88.40
2019-02-05T03:40:02.665Z,90.10
2019-02-05T03:42:29.644Z,88.50
2019-02-05T03:44:56.700Z,89.30
2019-02-05T03:47:23.562Z,89.90
2019-02-05T03:49:50.570Z,89.00
2019-02-05T03:52:22.668Z,90.00
2019-02-05T03:55:01.291Z,89.80
2019-02-05T03:57:41.895Z,90.10
2019-02-05T04:00:22.642Z,90.20
2019-02-05T04:03:21.829Z,90.00
2019-02-05T04:06:14.122Z,90.30
2019-02-05T04:08:51.239Z,89.90
2019-02-05T04:11:55.599Z,90.30
2019-02-05T04:14:41.602Z,90.20
2019-02-05T04:17:23.652Z,90.20
2019-02-05T04:20:23.386Z,90.00
2019-02-05T04:23:17.480Z,90.30
2019-02-05T04:25:53.008Z,90.30
2019-02-05T04:28:35.021Z,90.30
2019-02-05T04:31:18.873Z,90.40
2019-02-05T04:34:10.980Z,90.40
2019-02-05T04:37:04.344Z,91.10
2019-02-05T04:39:44.016Z,90.90
2019-02-05T04:42:21.593Z,90.90
2019-02-05T04:45:03.676Z,90.80
2019-02-05T04:47:43.805Z,90.90
2019-02-05T04:50:26.993Z,91.00
2019-02-05T04:53:10.643Z,91.20
2019-02-05T04:56:08.424Z,91.60
2019-02-05T04:58:49.738Z,91.60
2019-02-05T05:01:35.389Z,91.50
2019-02-05T05:04:14.267Z,91.20
2019-02-05T05:07:09.119Z,91.40
2019-02-05T05:09:49.393Z,91.30
2019-02-05T05:12:16.459Z,91.20
2019-02-05T05:14:43.396Z,91.20
2019-02-05T05:17:10.341Z,91.00
2019-02-05T05:19:37.297Z,91.20
2019-02-05T05:22:04.225Z,91.10
2019-02-05T05:24:31.162Z,91.10
2019-02-05T05:26:58.499Z,91.10
2019-02-05T05:29:25.453Z,91.10
2019-02-05T05:31:54.209Z,91.30
2019-02-05T05:34:21.213Z,91.50
2019-02-05T05:36:49.210Z,91.70
2019-02-05T05:39:16.180Z,91.40
2019-02-05T05:41:43.180Z,91.40
2019-02-05T05:44:10.096Z,91.40
2019-02-05T05:46:37.021Z,91.60
2019-02-05T05:49:04.087Z,92.10
2019-02-05T05:51:31.012Z,91.80
2019-02-05T05:53:57.935Z,91.80
2019-02-05T05:56:24.889Z,91.70
2019-02-05T05:58:51.822Z,91.80
2019-02-05T06:01:18.754Z,92.00
2019-02-05T06:03:45.701Z,92.20
2019-02-05T06:06:12.639Z,92.20
2019-02-05T06:08:39.569Z,92.20
2019-02-05T06:11:06.526Z,92.60
2019-02-05T06:13:33.451Z,92.00
2019-02-05T06:16:00.390Z,92.00
2019-02-05T06:18:27.337Z,92.00
2019-02-05T06:20:54.273Z,92.20
2019-02-05T06:23:21.236Z,92.30
2019-02-05T06:25:48.194Z,92.30
2019-02-05T06:28:15.388Z,92.40
2019-02-05T06:30:42.333Z,92.30
2019-02-05T06:33:09.278Z,92.50
2019-02-05T06:35:36.204Z,92.20
2019-02-05T06:38:03.299Z,92.10
2019-02-05T06:40:30.508Z,92.30
2019-02-05T06:42:57.361Z,92.20
2019-02-05T06:45:24.348Z,93.00
2019-02-05T06:47:51.325Z,92.70
2019-02-05T06:50:18.308Z,93.00
2019-02-05T06:52:45.268Z,92.80
2019-02-05T06:55:12.371Z,92.80
2019-02-05T06:57:39.356Z,92.10
2019-02-05T07:00:09.978Z,92.10
2019-02-05T07:02:36.967Z,92.20
2019-02-05T07:05:05.569Z,92.60
2019-02-05T07:07:32.520Z,92.70
2019-02-05T07:09:59.486Z,92.40
2019-02-05T07:12:26.477Z,92.30
2019-02-05T07:14:53.431Z,92.10
2019-02-05T07:17:20.414Z,92.50
2019-02-05T07:19:47.387Z,92.60
2019-02-05T07:22:14.329Z,92.40
2019-02-05T07:24:41.288Z,92.50
2019-02-05T07:27:08.237Z,92.00
2019-02-05T07:29:36.937Z,92.60
2019-02-05T07:32:04.057Z,91.80
2019-02-05T07:34:31.022Z,92.20
2019-02-05T07:36:57.984Z,92.10
2019-02-05T07:39:27.540Z,92.00
2019-02-05T07:41:51.900Z,92.30
2019-02-05T07:44:18.820Z,91.90
2019-02-05T07:46:45.782Z,91.60
2019-02-05T07:49:12.713Z,92.50
2019-02-05T07:51:39.654Z,91.50
2019-02-05T07:54:06.601Z,92.00
2019-02-05T07:56:33.549Z,91.30
2019-02-05T07:59:09.771Z,91.40
2019-02-05T08:01:27.536Z,90.90
2019-02-05T08:03:54.529Z,91.00
2019-02-05T08:06:21.543Z,90.70
2019-02-05T08:08:48.624Z,89.80
2019-02-05T08:11:15.660Z,90.20
2019-02-05T08:13:42.647Z,89.60
2019-02-05T08:16:10.040Z,89.30
2019-02-05T08:18:37.058Z,89.30
2019-02-05T08:21:04.428Z,88.20
2019-02-05T08:23:31.469Z,86.20
2019-02-05T08:25:58.520Z,86.50
2019-02-05T08:28:25.524Z,85.30
2019-02-05T08:30:52.784Z,83.80
2019-02-05T08:33:19.785Z,83.70
2019-02-05T08:35:46.776Z,83.50
2019-02-05T08:38:13.850Z,84.00
2019-02-05T08:40:40.821Z,82.80
2019-02-05T08:43:07.755Z,81.80
2019-02-05T08:45:34.717Z,80.80
2019-02-05T08:48:01.654Z,79.60
2019-02-05T08:50:28.620Z,78.30
2019-02-05T08:52:55.574Z,75.90
2019-02-05T08:55:22.502Z,73.70
2019-02-05T08:57:50.110Z,70.00
2019-02-05T09:00:19.436Z,66.10
2019-02-05T09:02:46.369Z,62.90
2019-02-05T09:05:13.794Z,59.60
2019-02-05T09:07:40.732Z,57.80
2019-02-05T09:10:09.351Z,55.50
2019-02-05T09:12:36.277Z,54.00
2019-02-05T09:15:03.780Z,53.10
2019-02-05T09:17:30.704Z,51.70
2019-02-05T09:19:57.628Z,50.30
2019-02-05T09:22:24.577Z,48.90
2019-02-05T09:24:51.522Z,48.00
2019-02-05T09:27:18.444Z,45.80
2019-02-05T09:29:45.406Z,44.70
2019-02-05T09:32:12.928Z,43.60
2019-02-05T09:34:40.847Z,42.90
2019-02-05T09:37:06.809Z,42.40
2019-02-05T09:39:33.744Z,41.70
2019-02-05T09:42:00.683Z,40.70
2019-02-05T09:44:27.636Z,40.00
2019-02-05T09:46:54.565Z,39.80
2019-02-05T09:49:21.508Z,38.30
2019-02-05T09:51:48.502Z,37.20
2019-02-05T09:54:15.407Z,37.20
2019-02-05T09:56:42.361Z,38.00
2019-02-05T09:59:09.315Z,38.30
2019-02-05T10:01:36.243Z,37.20
2019-02-05T10:04:03.188Z,36.10
2019-02-05T10:06:30.189Z,35.10
2019-02-05T10:08:57.132Z,34.50
2019-02-05T10:11:24.078Z,34.20
2019-02-05T10:13:51.035Z,34.30
2019-02-05T10:16:18.284Z,34.60
2019-02-05T10:18:45.970Z,34.30
2019-02-05T10:21:12.177Z,34.90
2019-02-05T10:23:39.099Z,35.30
2019-02-05T10:26:06.044Z,34.90
2019-02-05T10:28:32.992Z,34.40
2019-02-05T10:30:59.928Z,32.30
2019-02-05T10:33:27.384Z,31.70
2019-02-05T10:35:54.332Z,31.70
2019-02-05T10:38:21.281Z,32.20
2019-02-05T10:40:48.232Z,32.00
2019-02-05T10:43:15.204Z,31.40
2019-02-05T10:45:42.136Z,31.10
2019-02-05T10:48:09.764Z,30.40
2019-02-05T10:50:36.711Z,30.00
2019-02-05T10:53:03.914Z,29.70
2019-02-05T10:55:30.732Z,29.40
2019-02-05T10:57:57.693Z,29.50
2019-02-05T11:00:26.904Z,29.60
2019-02-05T11:02:54.984Z,30.10
2019-02-05T11:05:23.798Z,30.80
2019-02-05T11:07:50.741Z,29.10
2019-02-05T11:10:17.668Z,29.00
2019-02-05T11:12:44.680Z,28.90
2019-02-05T11:15:14.528Z,29.30
2019-02-05T11:17:41.463Z,29.80
2019-02-05T11:20:11.932Z,29.00
2019-02-05T11:22:38.864Z,28.70
2019-02-05T11:25:05.792Z,28.00
2019-02-05T11:27:32.768Z,27.00
2019-02-05T11:29:59.688Z,27.10
2019-02-05T11:32:26.639Z,27.20
2019-02-05T11:34:53.887Z,28.00
2019-02-05T11:37:20.819Z,28.10
2019-02-05T11:39:47.759Z,26.90
2019-02-05T11:42:14.716Z,26.70
2019-02-05T11:44:41.657Z,26.50
2019-02-05T11:47:08.645Z,26.40
2019-02-05T11:49:35.595Z,26.60
2019-02-05T11:52:02.536Z,26.40
2019-02-05T11:54:29.480Z,25.70
2019-02-05T11:56:56.427Z,25.60
2019-02-05T11:59:23.353Z,24.60
2019-02-05T12:01:50.287Z,24.60
2019-02-05T12:04:17.240Z,24.60
2019-02-05T12:06:44.194Z,24.70
2019-02-05T12:09:19.783Z,24.50
2019-02-05T12:11:46.721Z,24.60
2019-02-05T12:14:13.648Z,24.60
2019-02-05T12:16:40.609Z,24.20
2019-02-05T12:19:07.532Z,24.40
2019-02-05T12:21:34.456Z,24.20
2019-02-05T12:24:01.397Z,24.70
2019-02-05T12:26:28.348Z,25.00
2019-02-05T12:28:55.276Z,24.30
2019-02-05T12:31:22.216Z,24.00
2019-02-05T12:33:49.145Z,24.40
2019-02-05T12:36:16.237Z,24.10
2019-02-05T12:38:43.203Z,23.60
2019-02-05T12:41:10.145Z,24.60
2019-02-05T12:43:37.089Z,25.30
2019-02-05T12:46:04.066Z,24.70
2019-02-05T12:48:31.007Z,24.70
2019-02-05T12:50:57.949Z,25.10
2019-02-05T12:53:25.369Z,25.50
2019-02-05T12:55:52.614Z,25.10
2019-02-05T12:58:19.547Z,26.10
2019-02-05T13:00:56.464Z,26.90
2019-02-05T13:03:16.101Z,27.50
2019-02-05T13:05:43.116Z,28.20
2019-02-05T13:08:10.071Z,28.70
2019-02-05T13:10:39.693Z,30.30
2019-02-05T13:13:07.404Z,31.20
2019-02-05T13:15:34.371Z,31.50
2019-02-05T13:18:01.313Z,32.60
2019-02-05T13:20:28.321Z,34.60
2019-02-05T13:22:55.271Z,35.70
2019-02-05T13:25:24.052Z,37.10
2019-02-05T13:27:50.980Z,38.30
2019-02-05T13:30:20.232Z,38.80
2019-02-05T13:32:47.152Z,39.40
2019-02-05T13:35:14.625Z,39.10
2019-02-05T13:37:41.784Z,40.10
2019-02-05T13:40:10.844Z,40.70
2019-02-05T13:42:37.771Z,40.90
2019-02-05T13:45:05.516Z,41.30
2019-02-05T13:47:32.461Z,41.80
2019-02-05T13:49:59.409Z,41.40
2019-02-05T13:52:26.356Z,40.50
2019-02-05T13:54:53.293Z,41.20
2019-02-05T13:57:20.219Z,41.20
2019-02-05T13:59:47.184Z,40.40
2019-02-05T14:02:14.126Z,40.70
2019-02-05T14:04:41.064Z,41.40
2019-02-05T14:07:08.025Z,41.10
2019-02-05T14:09:34.961Z,40.60
2019-02-05T14:12:01.891Z,41.80
2019-02-05T14:14:28.849Z,40.90
2019-02-05T14:16:55.781Z,42.90
2019-02-05T14:19:22.704Z,42.00
2019-02-05T14:21:49.647Z,41.90
2019-02-05T14:24:16.589Z,42.60
2019-02-05T14:26:43.503Z,42.80
2019-02-05T14:29:10.444Z,43.60
2019-02-05T14:31:37.381Z,43.10
2019-02-05T14:34:04.313Z,42.90
2019-02-05T14:36:31.255Z,43.40
2019-02-05T14:38:59.524Z,44.00
2019-02-05T14:41:26.444Z,43.20
2019-02-05T14:43:53.424Z,43.10
2019-02-05T14:46:20.366Z,41.80
2019-02-05T14:48:47.292Z,43.10
2019-02-05T14:51:14.244Z,43.30
2019-02-05T14:53:41.180Z,42.80
2019-02-05T14:56:08.113Z,42.50
2019-02-05T14:58:35.097Z,42.50
2019-02-05T15:01:02.024Z,42.80
2019-02-05T15:03:28.959Z,42.90
2019-02-05T15:05:55.916Z,43.50
2019-02-05T15:08:22.870Z,44.20
2019-02-05T15:10:49.810Z,43.80
2019-02-05T15:13:16.865Z,42.70
2019-02-05T15:15:43.806Z,42.80
2019-02-05T15:18:13.361Z,43.50
2019-02-05T15:20:42.506Z,43.30
2019-02-05T15:23:09.644Z,43.20
2019-02-05T15:25:36.731Z,43.70
2019-02-05T15:28:04.059Z,43.40
2019-02-05T15:30:35.957Z,44.10
2019-02-05T15:33:22.576Z,43.70
2019-02-05T15:35:52.208Z,44.10
2019-02-05T15:38:19.142Z,43.10
2019-02-05T15:40:48.585Z,44.50
2019-02-05T15:43:15.516Z,45.20
2019-02-05T15:45:42.539Z,43.80
2019-02-05T15:48:09.505Z,46.20
2019-02-05T15:50:36.445Z,45.40
2019-02-05T15:53:03.395Z,46.70
2019-02-05T15:55:30.357Z,49.40
2019-02-05T15:57:57.284Z,50.00
2019-02-05T16:00:24.252Z,52.50
2019-02-05T16:02:51.196Z,53.30
2019-02-05T16:05:18.129Z,54.00
2019-02-05T16:07:45.083Z,54.40
2019-02-05T16:10:12.870Z,54.70
2019-02-05T16:12:39.803Z,55.30
2019-02-05T16:15:07.372Z,55.70
2019-02-05T16:17:34.326Z,56.30
2019-02-05T16:20:01.254Z,56.30
2019-02-05T16:22:28.248Z,56.60
2019-02-05T16:24:55.194Z,58.00
2019-02-05T16:27:22.116Z,57.00
2019-02-05T16:29:49.034Z,57.00
2019-02-05T16:32:17.781Z,57.20
2019-02-05T16:34:42.923Z,57.00
2019-02-05T16:37:09.889Z,57.90
2019-02-05T16:39:36.841Z,58.70
2019-02-05T16:42:04.392Z,58.30
2019-02-05T16:44:31.313Z,58.40
2019-02-05T16:46:58.264Z,58.40
2019-02-05T16:49:25.193Z,58.70
2019-02-05T16:51:52.121Z,59.00
2019-02-05T16:54:19.064Z,59.40
2019-02-05T16:56:46.000Z,59.50
2019-02-05T16:59:12.918Z,59.80
2019-02-05T17:01:39.865Z,60.50
2019-02-05T17:04:06.805Z,60.90
2019-02-05T17:06:33.747Z,60.20
2019-02-05T17:09:00.704Z,61.10
2019-02-05T17:11:27.639Z,61.50
2019-02-05T17:13:54.588Z,62.00
2019-02-05T17:16:21.527Z,62.40
2019-02-05T17:18:48.455Z,62.90
2019-02-05T17:21:15.390Z,63.10
2019-02-05T17:23:42.456Z,62.40
2019-02-05T17:26:09.297Z,62.50
2019-02-05T17:28:36.239Z,62.20
2019-02-05T17:31:03.195Z,61.90
2019-02-05T17:33:30.188Z,62.90
2019-02-05T17:35:57.111Z,64.50
2019-02-05T17:38:25.656Z,63.30
2019-02-05T17:40:51.054Z,65.10
2019-02-05T17:43:18.964Z,65.60
2019-02-05T17:45:46.024Z,66.10
2019-02-05T17:48:15.619Z,66.70
2019-02-05T17:50:42.551Z,66.10
2019-02-05T17:53:09.531Z,67.20
2019-02-05T17:55:36.463Z,67.40
2019-02-05T17:58:03.465Z,67.40
2019-02-05T18:00:36.783Z,68.40
2019-02-05T18:03:03.753Z,69.10
2019-02-05T18:05:30.675Z,69.50
2019-02-05T18:07:57.632Z,69.40
2019-02-05T18:10:25.191Z,69.30
2019-02-05T18:12:52.137Z,69.70
2019-02-05T18:15:21.624Z,69.90
2019-02-05T18:17:48.556Z,69.50
2019-02-05T18:20:15.500Z,69.80
2019-02-05T18:22:42.465Z,70.40
2019-02-05T18:25:10.615Z,70.60
2019-02-05T18:27:37.543Z,70.50
2019-02-05T18:30:07.705Z,70.80
2019-02-05T18:32:34.631Z,71.00
2019-02-05T18:35:01.579Z,71.80
2019-02-05T18:37:28.516Z,72.40
2019-02-05T18:39:55.461Z,73.20
2019-02-05T18:42:22.387Z,74.30
2019-02-05T18:44:50.918Z,74.70
2019-02-05T18:47:17.878Z,74.30
2019-02-05T18:49:44.800Z,74.60
2019-02-05T18:52:11.812Z,76.10
2019-02-05T18:54:38.740Z,75.90
2019-02-05T18:57:05.696Z,75.10
2019-02-05T18:59:32.652Z,75.10
2019-02-05T19:01:59.562Z,74.80
2019-02-05T19:04:26.495Z,75.40
2019-02-05T19:06:53.472Z,75.40
2019-02-05T19:09:20.407Z,74.90
2019-02-05T19:11:47.339Z,75.50
2019-02-05T19:14:14.314Z,74.00
2019-02-05T19:16:41.228Z,73.40
2019-02-05T19:19:15.055Z,73.20
2019-02-05T19:21:35.210Z,73.30
2019-02-05T19:24:10.889Z,73.20
2019-02-05T19:26:44.106Z,73.40
2019-02-05T19:29:18.618Z,73.70
2019-02-05T19:31:38.638Z,74.80
2019-02-05T19:34:05.593Z,75.40
2019-02-05T19:36:32.519Z,75.50
2019-02-05T19:38:59.486Z,75.50
2019-02-05T19:41:26.452Z,75.90
2019-02-05T19:43:53.385Z,76.20
2019-02-05T19:46:29.415Z,76.20
2019-02-05T19:49:00.413Z,76.30
2019-02-05T19:51:27.233Z,76.30
2019-02-05T19:53:54.176Z,76.20
2019-02-05T19:56:21.139Z,76.40
2019-02-05T19:58:48.089Z,76.60
2019-02-05T20:01:15.064Z,76.50
2019-02-05T20:03:42.010Z,77.60
2019-02-05T20:06:08.941Z,77.50
2019-02-05T20:08:35.908Z,77.50
2019-02-05T20:11:02.857Z,77.90
2019-02-05T20:13:40.011Z,78.40
2019-02-05T20:15:56.761Z,78.30
2019-02-05T20:18:23.680Z,78.50
2019-02-05T20:20:50.634Z,78.90
2019-02-05T20:23:17.578Z,78.40
2019-02-05T20:25:44.526Z,79.00
2019-02-05T20:28:11.463Z,79.20
2019-02-05T20:30:38.436Z,79.30
2019-02-05T20:33:05.356Z,79.50
2019-02-05T20:35:32.285Z,79.70
2019-02-05T20:37:59.223Z,79.30
2019-02-05T20:40:26.206Z,79.10
2019-02-05T20:42:53.146Z,76.80
2019-02-05T20:45:20.109Z,78.80
2019-02-05T20:47:48.617Z,78.30
2019-02-05T20:50:15.670Z,78.40
2019-02-05T20:52:42.628Z,78.40
2019-02-05T20:55:11.212Z,78.00
2019-02-05T20:57:38.796Z,77.30
2019-02-05T21:00:10.441Z,77.20
2019-02-05T21:02:37.478Z,77.90
2019-02-05T21:05:05.345Z,76.60
2019-02-05T21:07:32.385Z,78.60
2019-02-05T21:09:59.403Z,77.60
2019-02-05T21:12:26.391Z,78.40
2019-02-05T21:14:53.409Z,76.00
2019-02-05T21:17:20.375Z,76.90
2019-02-05T21:19:47.379Z,76.50
2019-02-05T21:22:14.412Z,76.30
2019-02-05T21:24:41.400Z,76.40
2019-02-05T21:27:08.428Z,76.60
2019-02-05T21:29:35.476Z,76.90
2019-02-05T21:32:02.447Z,76.60
2019-02-05T21:34:29.449Z,77.70
2019-02-05T21:36:56.481Z,76.90
2019-02-05T21:39:23.475Z,77.80
2019-02-05T21:41:50.433Z,79.20
2019-02-05T21:44:17.420Z,79.50
2019-02-05T21:46:44.384Z,79.60
2019-02-05T21:49:12.872Z,80.40
2019-02-05T21:51:41.206Z,80.40
2019-02-05T21:54:06.832Z,80.50
2019-02-05T21:56:33.792Z,81.70
2019-02-05T21:59:00.784Z,81.20
2019-02-05T22:01:27.718Z,82.60
2019-02-05T22:03:54.670Z,82.50
2019-02-05T22:06:21.664Z,82.30
2019-02-05T22:08:48.663Z,82.20
2019-02-05T22:11:15.653Z,83.20
2019-02-05T22:13:42.648Z,82.10
2019-02-05T22:16:09.647Z,82.70
2019-02-05T22:18:36.637Z,84.00
2019-02-05T22:21:03.693Z,83.30
2019-02-05T22:23:30.709Z,83.60
2019-02-05T22:25:57.656Z,82.50
2019-02-05T22:28:24.613Z,85.20
2019-02-05T22:30:51.568Z,84.20
2019-02-05T22:33:18.528Z,84.70
2019-02-05T22:35:45.561Z,84.80
2019-02-05T22:38:12.565Z,85.00
2019-02-05T22:40:39.549Z,85.00
2019-02-05T22:43:06.544Z,85.30
2019-02-05T22:45:33.558Z,87.20
2019-02-05T22:48:00.570Z,87.60
2019-02-05T22:50:29.649Z,86.20
2019-02-05T22:52:57.184Z,85.10
2019-02-05T22:55:24.988Z,85.10
2019-02-05T22:57:51.955Z,85.90
2019-02-05T23:00:50.909Z,87.90
2019-02-05T23:03:27.813Z,85.60
2019-02-05T23:06:19.488Z,86.10
2019-02-05T23:08:46.563Z,86.00
2019-02-05T23:11:27.334Z,86.10
2019-02-05T23:13:54.306Z,87.50
2019-02-05T23:16:21.295Z,86.30
2019-02-05T23:18:48.257Z,86.10
2019-02-05T23:21:15.246Z,86.70
2019-02-05T23:23:42.256Z,87.40
2019-02-05T23:26:09.227Z,86.70
2019-02-05T23:28:36.208Z,85.90
2019-02-05T23:31:03.193Z,85.70
2019-02-05T23:33:30.169Z,84.50
2019-02-05T23:35:57.200Z,85.20
2019-02-05T23:38:29.415Z,84.30
2019-02-05T23:40:51.109Z,86.40
2019-02-05T23:43:18.117Z,84.70
2019-02-05T23:45:45.115Z,85.30
2019-02-05T23:48:12.023Z,85.00
2019-02-05T23:50:39.288Z,84.10
2019-02-05T23:53:06.233Z,84.10
2019-02-05T23:55:33.197Z,84.90
2019-02-05T23:58:00.435Z,83.60
